Maersk Volta — 9V2317 — position and weather

sailwx.info

Track history (hours):
 
Tides and Currents Weather Stations Pressure Air Temp Water Temp Dewpoint Dewpoint Depression Visibility Wind Speed Wind Dir Waves Ship Positions

Maersk Volta

Last reported at 2017-Sep-11 11:55 UTC. Time now 2017-Sep-26 09:28 UTC.
Position N 28°22' W 013°24'.
Warning: this ship's position is 14 days out of date.

Length 176 m; draft 10.4 m.

Type: Cargo ship. MMSI: 563430000.

Date/timePositionNaut miles runAvg speedWind from/ knotsBaromVisibWave heightAir tempDewpointWater temp
2017-Sep-11 11:55N 28°22' W 013°24'717.0
2017-Sep-11 11:29N 28°28' W 013°20'816.9
2017-Sep-11 11:00N 28°35' W 013°15'917.1
2017-Sep-11 10:29N 28°42' W 013°09'  
2017-Sep-09 01:58N 35°46' W 006°28'11 9.5
2017-Sep-09 00:45N 35°53' W 006°17'33 9.0
2017-Sep-08 21:08N 35°58' W 005°37'1 6.7
2017-Sep-08 21:00N 35°58' W 005°36'3 6.6
2017-Sep-08 20:30N 35°58' W 005°32'3 5.7
2017-Sep-08 20:00N 35°60' W 005°28'3 6.1
2017-Sep-08 19:30N 36°00' W 005°25'4 7.3
2017-Sep-08 19:00N 36°04' W 005°24'4 8.7
2017-Sep-08 18:30N 36°08' W 005°24'1 0.1
2017-Sep-08 05:38N 36°08' W 005°26'0 0.0
2017-Sep-08 05:26N 36°08' W 005°26'0 0.0
2017-Sep-08 04:17N 36°08' W 005°26'0 0.0
2017-Sep-08 03:56N 36°08' W 005°26'0 0.0
2017-Sep-08 03:26N 36°08' W 005°26'0 0.0
2017-Sep-08 02:56N 36°08' W 005°26'0 0.0
2017-Sep-08 02:14N 36°08' W 005°26'0 0.0
2017-Sep-08 00:50N 36°08' W 005°26'0 0.1
2017-Sep-08 00:26N 36°08' W 005°26'0 0.1
2017-Sep-07 23:59N 36°08' W 005°26'0 0.0
2017-Sep-07 23:26N 36°08' W 005°26'0 0.0
2017-Sep-07 22:56N 36°08' W 005°26'0 0.0
2017-Sep-07 22:20N 36°08' W 005°26'0 0.0
2017-Sep-07 21:56N 36°08' W 005°26'0 0.0
2017-Sep-07 21:26N 36°08' W 005°26'0 0.0
2017-Sep-07 20:59N 36°08' W 005°26'0 0.0
2017-Sep-07 20:23N 36°08' W 005°26'0 0.0
2017-Sep-07 19:59N 36°08' W 005°26'0 0.0
2017-Sep-07 19:20N 36°08' W 005°26'0 0.0
2017-Sep-07 18:56N 36°08' W 005°26'0 0.0
2017-Sep-07 18:20N 36°08' W 005°26'0 0.0
2017-Sep-07 17:50N 36°08' W 005°26'0 0.0
2017-Sep-07 12:50N 36°08' W 005°26'0 0.0
2017-Sep-07 09:56N 36°08' W 005°26'0 0.8
2017-Sep-07 09:19N 36°08' W 005°26'1 4.0
2017-Sep-07 08:58N 36°08' W 005°24'0 0.3
2017-Sep-07 07:39N 36°08' W 005°25'0 0.2
2017-Sep-07 07:27N 36°08' W 005°25'0 0.0
2017-Sep-07 04:54N 36°08' W 005°25'0 0.0
2017-Sep-07 04:30N 36°08' W 005°25'0 0.0
2017-Sep-07 03:57N 36°08' W 005°25'0 0.0
2017-Sep-07 03:24N 36°08' W 005°25'0 0.1
2017-Sep-07 03:00N 36°08' W 005°25'0 0.2
2017-Sep-07 02:15N 36°08' W 005°24'0 0.3
2017-Sep-07 01:57N 36°08' W 005°25'0 0.0
2017-Sep-07 00:18N 36°08' W 005°25'0 0.2
2017-Sep-07 00:00N 36°08' W 005°25'0 0.1
2017-Sep-06 23:27N 36°08' W 005°25'0 0.1
2017-Sep-06 23:00N 36°08' W 005°25'0 0.1
2017-Sep-06 20:57N 36°08' W 005°25'0 0.2
2017-Sep-06 20:27N 36°07' W 005°25'0 0.0
2017-Sep-06 19:57N 36°07' W 005°25'0 0.0
2017-Sep-06 19:27N 36°07' W 005°25'0 0.1
2017-Sep-06 19:00N 36°07' W 005°25'0 0.0
2017-Sep-06 10:33N 36°08' W 005°25'0 0.1
2017-Sep-06 10:27N 36°08' W 005°25'0 0.0
2017-Sep-06 09:42N 36°08' W 005°25'0 0.1
2017-Sep-06 08:39N 36°08' W 005°25'0 0.1
2017-Sep-06 08:18N 36°08' W 005°25'0 0.2
2017-Sep-06 08:00N 36°08' W 005°25'0 0.1
2017-Sep-06 07:23N 36°08' W 005°25'1 1.6
2017-Sep-06 06:55N 36°08' W 005°25'0 0.0
2017-Sep-06 06:29N 36°08' W 005°25'0 0.0
2017-Sep-06 05:59N 36°08' W 005°25'0 0.0
2017-Sep-06 05:26N 36°08' W 005°25'0 0.0
2017-Sep-06 04:59N 36°08' W 005°25'0 0.0
2017-Sep-06 04:29N 36°08' W 005°25'0 0.0
2017-Sep-06 03:59N 36°08' W 005°25'0 0.0
2017-Sep-06 03:26N 36°08' W 005°25'0 0.0
2017-Sep-06 02:50N 36°08' W 005°25'0 0.0
2017-Sep-06 02:29N 36°08' W 005°25'0 0.0
2017-Sep-06 01:56N 36°08' W 005°25'0 0.0
2017-Sep-06 01:17N 36°08' W 005°25'0 0.0
2017-Sep-06 00:59N 36°08' W 005°25'0 0.0
2017-Sep-06 00:29N 36°08' W 005°25'0 0.0
2017-Sep-05 23:59N 36°08' W 005°25'0 0.0
2017-Sep-05 23:29N 36°08' W 005°25'0 0.1
2017-Sep-05 22:53N 36°08' W 005°25'0 0.1
2017-Sep-05 22:29N 36°08' W 005°25'0 0.0
2017-Sep-05 21:50N 36°08' W 005°25'0 0.0
2017-Sep-05 21:29N 36°08' W 005°25'0 0.0
2017-Sep-05 20:59N 36°08' W 005°25'0 0.0
2017-Sep-05 19:14N 36°08' W 005°25'0 0.1
2017-Sep-05 18:59N 36°08' W 005°25'0 0.0
2017-Sep-05 18:29N 36°08' W 005°25'0 0.0
2017-Sep-05 17:59N 36°08' W 005°25'0 0.1
2017-Sep-05 17:27N 36°08' W 005°25'1 3.0
2017-Sep-05 17:00N 36°08' W 005°24'1 2.4
2017-Sep-05 16:30N 36°06' W 005°24'2 4.6
2017-Sep-05 16:00N 36°04' W 005°23'4 8.1
2017-Sep-05 15:30N 36°00' W 005°23'611.5
2017-Sep-05 14:59N 35°57' W 005°29'29 1.2
2017-Sep-04 15:56N 35°53' W 006°04'145 8.9
2017-Sep-03 23:39N 34°15' W 008°15'1 9.1
2017-Sep-03 23:30N 34°14' W 008°16'4 9.0
2017-Sep-03 23:00N 34°11' W 008°20'4 8.8
2017-Sep-03 22:30N 34°08' W 008°24'5 8.6
2017-Sep-03 21:56N 34°04' W 008°28'4 8.5
2017-Sep-03 21:30N 34°02' W 008°31'4 8.5
2017-Sep-03 21:00N 33°59' W 008°35'4 8.6
2017-Sep-03 20:30N 33°56' W 008°39'4 8.5
2017-Sep-03 20:00N 33°53' W 008°43'4 8.3
2017-Sep-03 19:30N 33°50' W 008°46'4 8.2
2017-Sep-03 19:00N 33°47' W 008°50'4 8.2
2017-Sep-03 18:30N 33°45' W 008°54'4 8.2
2017-Sep-03 18:00N 33°42' W 008°57'4 8.3
2017-Sep-03 17:30N 33°39' W 009°01'4 8.3
2017-Sep-03 17:00N 33°36' W 009°05'5 8.3
2017-Sep-03 16:28N 33°33' W 009°09'4 8.4
2017-Sep-03 15:59N 33°31' W 009°12'4 8.4
2017-Sep-03 15:29N 33°28' W 009°16'13 8.6
2017-Sep-03 13:58N 33°19' W 009°27'4 9.1
2017-Sep-03 13:30N 33°16' W 009°31'9 9.3
2017-Sep-03 12:35N 33°10' W 009°38'303 9.4
2017-Sep-02 04:28N 28°59' W 012°57'5 8.7
2017-Sep-02 03:55N 28°55' W 012°60'4 8.7
2017-Sep-02 03:30N 28°52' W 013°02'6 8.8
2017-Sep-02 02:51N 28°47' W 013°06'3 8.7
2017-Sep-02 02:29N 28°44' W 013°08'4 8.6
2017-Sep-02 02:00N 28°41' W 013°10'5 8.9
2017-Sep-02 01:28N 28°37' W 013°13'5 8.9
2017-Sep-02 00:52N 28°32' W 013°16'28 9.6
2017-Sep-01 21:55N 28°09' W 013°34'  
Track history (hours):
 
Tides and Currents Weather Stations Pressure Air Temp Water Temp Dewpoint Dewpoint Depression Visibility Wind Speed Wind Dir Waves Ship Positions

Maersk Volta

Last reported at 2017-Sep-11 11:55 UTC. Time now 2017-Sep-26 09:28 UTC.
Position N 28°22' W 013°24'.
Warning: this ship's position is 14 days out of date.

Length 176 m; draft 10.4 m.

Type: Cargo ship. MMSI: 563430000.

Date/timePositionNaut miles runAvg speedWind from/ knotsBaromVisibWave heightAir tempDewpointWater temp
2017-Sep-11 11:55N 28°22' W 013°24'717.0
2017-Sep-11 11:29N 28°28' W 013°20'816.9
2017-Sep-11 11:00N 28°35' W 013°15'917.1
2017-Sep-11 10:29N 28°42' W 013°09'  
2017-Sep-09 01:58N 35°46' W 006°28'11 9.5
2017-Sep-09 00:45N 35°53' W 006°17'33 9.0
2017-Sep-08 21:08N 35°58' W 005°37'1 6.7
2017-Sep-08 21:00N 35°58' W 005°36'3 6.6
2017-Sep-08 20:30N 35°58' W 005°32'3 5.7
2017-Sep-08 20:00N 35°60' W 005°28'3 6.1
2017-Sep-08 19:30N 36°00' W 005°25'4 7.3
2017-Sep-08 19:00N 36°04' W 005°24'4 8.7
2017-Sep-08 18:30N 36°08' W 005°24'1 0.1
2017-Sep-08 05:38N 36°08' W 005°26'0 0.0
2017-Sep-08 05:26N 36°08' W 005°26'0 0.0
2017-Sep-08 04:17N 36°08' W 005°26'0 0.0
2017-Sep-08 03:56N 36°08' W 005°26'0 0.0
2017-Sep-08 03:26N 36°08' W 005°26'0 0.0
2017-Sep-08 02:56N 36°08' W 005°26'0 0.0
2017-Sep-08 02:14N 36°08' W 005°26'0 0.0
2017-Sep-08 00:50N 36°08' W 005°26'0 0.1
2017-Sep-08 00:26N 36°08' W 005°26'0 0.1
2017-Sep-07 23:59N 36°08' W 005°26'0 0.0
2017-Sep-07 23:26N 36°08' W 005°26'0 0.0
2017-Sep-07 22:56N 36°08' W 005°26'0 0.0
2017-Sep-07 22:20N 36°08' W 005°26'0 0.0
2017-Sep-07 21:56N 36°08' W 005°26'0 0.0
2017-Sep-07 21:26N 36°08' W 005°26'0 0.0
2017-Sep-07 20:59N 36°08' W 005°26'0 0.0
2017-Sep-07 20:23N 36°08' W 005°26'0 0.0
2017-Sep-07 19:59N 36°08' W 005°26'0 0.0
2017-Sep-07 19:20N 36°08' W 005°26'0 0.0
2017-Sep-07 18:56N 36°08' W 005°26'0 0.0
2017-Sep-07 18:20N 36°08' W 005°26'0 0.0
2017-Sep-07 17:50N 36°08' W 005°26'0 0.0
2017-Sep-07 12:50N 36°08' W 005°26'0 0.0
2017-Sep-07 09:56N 36°08' W 005°26'0 0.8
2017-Sep-07 09:19N 36°08' W 005°26'1 4.0
2017-Sep-07 08:58N 36°08' W 005°24'0 0.3
2017-Sep-07 07:39N 36°08' W 005°25'0 0.2
2017-Sep-07 07:27N 36°08' W 005°25'0 0.0
2017-Sep-07 04:54N 36°08' W 005°25'0 0.0
2017-Sep-07 04:30N 36°08' W 005°25'0 0.0
2017-Sep-07 03:57N 36°08' W 005°25'0 0.0
2017-Sep-07 03:24N 36°08' W 005°25'0 0.1
2017-Sep-07 03:00N 36°08' W 005°25'0 0.2
2017-Sep-07 02:15N 36°08' W 005°24'0 0.3
2017-Sep-07 01:57N 36°08' W 005°25'0 0.0
2017-Sep-07 00:18N 36°08' W 005°25'0 0.2
2017-Sep-07 00:00N 36°08' W 005°25'0 0.1
2017-Sep-06 23:27N 36°08' W 005°25'0 0.1
2017-Sep-06 23:00N 36°08' W 005°25'0 0.1
2017-Sep-06 20:57N 36°08' W 005°25'0 0.2
2017-Sep-06 20:27N 36°07' W 005°25'0 0.0
2017-Sep-06 19:57N 36°07' W 005°25'0 0.0
2017-Sep-06 19:27N 36°07' W 005°25'0 0.1
2017-Sep-06 19:00N 36°07' W 005°25'0 0.0
2017-Sep-06 10:33N 36°08' W 005°25'0 0.1
2017-Sep-06 10:27N 36°08' W 005°25'0 0.0
2017-Sep-06 09:42N 36°08' W 005°25'0 0.1
2017-Sep-06 08:39N 36°08' W 005°25'0 0.1
2017-Sep-06 08:18N 36°08' W 005°25'0 0.2
2017-Sep-06 08:00N 36°08' W 005°25'0 0.1
2017-Sep-06 07:23N 36°08' W 005°25'1 1.6
2017-Sep-06 06:55N 36°08' W 005°25'0 0.0
2017-Sep-06 06:29N 36°08' W 005°25'0 0.0
2017-Sep-06 05:59N 36°08' W 005°25'0 0.0
2017-Sep-06 05:26N 36°08' W 005°25'0 0.0
2017-Sep-06 04:59N 36°08' W 005°25'0 0.0
2017-Sep-06 04:29N 36°08' W 005°25'0 0.0
2017-Sep-06 03:59N 36°08' W 005°25'0 0.0
2017-Sep-06 03:26N 36°08' W 005°25'0 0.0
2017-Sep-06 02:50N 36°08' W 005°25'0 0.0
2017-Sep-06 02:29N 36°08' W 005°25'0 0.0
2017-Sep-06 01:56N 36°08' W 005°25'0 0.0
2017-Sep-06 01:17N 36°08' W 005°25'0 0.0
2017-Sep-06 00:59N 36°08' W 005°25'0 0.0
2017-Sep-06 00:29N 36°08' W 005°25'0 0.0
2017-Sep-05 23:59N 36°08' W 005°25'0 0.0
2017-Sep-05 23:29N 36°08' W 005°25'0 0.1
2017-Sep-05 22:53N 36°08' W 005°25'0 0.1
2017-Sep-05 22:29N 36°08' W 005°25'0 0.0
2017-Sep-05 21:50N 36°08' W 005°25'0 0.0
2017-Sep-05 21:29N 36°08' W 005°25'0 0.0
2017-Sep-05 20:59N 36°08' W 005°25'0 0.0
2017-Sep-05 19:14N 36°08' W 005°25'0 0.1
2017-Sep-05 18:59N 36°08' W 005°25'0 0.0
2017-Sep-05 18:29N 36°08' W 005°25'0 0.0
2017-Sep-05 17:59N 36°08' W 005°25'0 0.1
2017-Sep-05 17:27N 36°08' W 005°25'1 3.0
2017-Sep-05 17:00N 36°08' W 005°24'1 2.4
2017-Sep-05 16:30N 36°06' W 005°24'2 4.6
2017-Sep-05 16:00N 36°04' W 005°23'4 8.1
2017-Sep-05 15:30N 36°00' W 005°23'611.5
2017-Sep-05 14:59N 35°57' W 005°29'29 1.2
2017-Sep-04 15:56N 35°53' W 006°04'145 8.9
2017-Sep-03 23:39N 34°15' W 008°15'1 9.1
2017-Sep-03 23:30N 34°14' W 008°16'4 9.0
2017-Sep-03 23:00N 34°11' W 008°20'4 8.8
2017-Sep-03 22:30N 34°08' W 008°24'5 8.6
2017-Sep-03 21:56N 34°04' W 008°28'4 8.5
2017-Sep-03 21:30N 34°02' W 008°31'4 8.5
2017-Sep-03 21:00N 33°59' W 008°35'4 8.6
2017-Sep-03 20:30N 33°56' W 008°39'4 8.5
2017-Sep-03 20:00N 33°53' W 008°43'4 8.3
2017-Sep-03 19:30N 33°50' W 008°46'4 8.2
2017-Sep-03 19:00N 33°47' W 008°50'4 8.2
2017-Sep-03 18:30N 33°45' W 008°54'4 8.2
2017-Sep-03 18:00N 33°42' W 008°57'4 8.3
2017-Sep-03 17:30N 33°39' W 009°01'4 8.3
2017-Sep-03 17:00N 33°36' W 009°05'5 8.3
2017-Sep-03 16:28N 33°33' W 009°09'4 8.4
2017-Sep-03 15:59N 33°31' W 009°12'4 8.4
2017-Sep-03 15:29N 33°28' W 009°16'13 8.6
2017-Sep-03 13:58N 33°19' W 009°27'4 9.1
2017-Sep-03 13:30N 33°16' W 009°31'9 9.3
2017-Sep-03 12:35N 33°10' W 009°38'303 9.4
2017-Sep-02 04:28N 28°59' W 012°57'5 8.7
2017-Sep-02 03:55N 28°55' W 012°60'4 8.7
2017-Sep-02 03:30N 28°52' W 013°02'6 8.8
2017-Sep-02 02:51N 28°47' W 013°06'3 8.7
2017-Sep-02 02:29N 28°44' W 013°08'4 8.6
2017-Sep-02 02:00N 28°41' W 013°10'5 8.9
2017-Sep-02 01:28N 28°37' W 013°13'5 8.9
2017-Sep-02 00:52N 28°32' W 013°16'28 9.6
2017-Sep-01 21:55N 28°09' W 013°34'  

Dump ship's entire track history